Kaibeto, Arizona
Current Conditions -  °F | °C
As of 1:54 PM on Tuesday 21 Oct 2014 (Local Time) from KGCN Reporting Station
Clear Clear  
Wind Chill: 66°   Ceiling: Unl
Heat Index: 66°   Visibility: 10mi
Dew Point: 33°   Wind: 8mph
Humidity: 29%   Direction: 240°WSW
Pressure: 30.12"   Gusts: 20mph
Location:  36.4905°N, 111.31°W
Report Text: KGCN 211954Z 24007G17KT 180V270 10SM CLR 19/01 A3012 RMK AO2 SLP137 T01890006
Loading
Personal Weather Stations






























Interactive Weather Map
Tropical Storm Tracking
New forecast layout! Learn more

10-Day Weather Forecast

Advertisements
Track Severe Weather on mobile